Time;durP1;ratioP1;P1;durP2;ratioP2;P2;SDS_P1;SDS_P2;PMS_P1;PMS_P2;Temp;Humidity;BMP_temperature;BMP_pressure;BME280_temperature;BME280_humidity;BME280_pressure;Samples;Min_cycle;Max_cycle;Signal;HPM_P1;HPM_P2
2021/10/06 00:00:34;;;;;;;12.20;6.30;;;;;;;12.97;58.71;100543.83;94020;1196;79603;-68
2021/10/06 00:02:46;;;;;;;12.60;7.30;;;;;;;12.95;58.79;100537.16;94048;1196;80895;-71
2021/10/06 00:04:50;;;;;;;11.00;6.70;;;;;;;12.95;58.83;100543.33;94026;1195;99271;-66
2021/10/06 00:06:57;;;;;;;12.70;6.90;;;;;;;12.94;58.82;100541.83;94049;1196;87543;-68
2021/10/06 00:09:06;;;;;;;11.50;7.70;;;;;;;12.93;58.93;100540.94;94030;1196;93727;-70
2021/10/06 00:11:10;;;;;;;13.40;6.40;;;;;;;12.91;59.00;100543.76;94059;1196;78916;-64
2021/10/06 00:13:15;;;;;;;15.30;6.70;;;;;;;12.89;59.11;100548.00;94009;1196;82363;-64
2021/10/06 00:15:23;;;;;;;13.50;6.20;;;;;;;12.86;59.07;100544.41;94064;1195;99291;-64
2021/10/06 00:17:27;;;;;;;13.10;7.10;;;;;;;12.83;59.19;100548.43;94031;1195;86813;-64
2021/10/06 00:19:31;;;;;;;13.70;7.70;;;;;;;12.81;59.29;100548.33;94011;1195;94910;-63
2021/10/06 00:21:36;;;;;;;11.80;6.60;;;;;;;12.79;59.30;100540.45;94033;1195;80096;-69
2021/10/06 00:23:40;;;;;;;12.00;7.00;;;;;;;12.78;59.45;100542.19;94059;1195;80410;-68
2021/10/06 00:25:45;;;;;;;13.20;7.20;;;;;;;12.78;59.44;100540.98;94045;1196;98620;-70
2021/10/06 00:27:49;;;;;;;13.50;6.80;;;;;;;12.77;59.60;100544.19;94061;1196;87262;-70
2021/10/06 00:29:54;;;;;;;13.40;7.20;;;;;;;12.77;59.60;100536.98;94091;1196;95097;-64
2021/10/06 00:31:58;;;;;;;13.80;7.20;;;;;;;12.76;59.66;100532.41;94058;1195;79203;-65
2021/10/06 00:34:02;;;;;;;12.80;7.60;;;;;;;12.75;59.67;100534.28;94043;1195;80363;-63
2021/10/06 00:36:07;;;;;;;14.20;7.30;;;;;;;12.74;59.68;100537.13;93991;1196;100212;-70
2021/10/06 00:38:11;;;;;;;12.60;7.10;;;;;;;12.73;59.85;100535.48;94057;1196;87773;-70
2021/10/06 00:40:16;;;;;;;13.90;7.00;;;;;;;12.72;59.83;100542.69;94014;1196;94878;-63
2021/10/06 00:42:20;;;;;;;13.50;6.90;;;;;;;12.71;59.96;100545.06;94048;1196;78212;-63
2021/10/06 00:44:25;;;;;;;16.10;7.20;;;;;;;12.74;59.97;100546.84;94070;1196;80467;-62
2021/10/06 00:46:29;;;;;;;9.50;6.70;;;;;;;12.79;59.99;100546.08;94085;1195;99063;-70
2021/10/06 00:48:33;;;;;;;13.50;6.80;;;;;;;12.82;59.98;100550.01;94031;1195;88423;-70
2021/10/06 00:50:37;;;;;;;10.00;6.40;;;;;;;12.83;60.01;100558.48;93997;1196;94693;-70
2021/10/06 00:52:42;;;;;;;10.80;6.40;;;;;;;12.85;59.93;100554.09;94016;1196;79680;-70
2021/10/06 00:54:52;;;;;;;12.80;7.70;;;;;;;12.87;59.98;100554.23;94024;1195;81609;-69
2021/10/06 00:56:56;;;;;;;12.50;6.80;;;;;;;12.87;60.01;100557.23;94076;1196;98182;-70
2021/10/06 00:59:02;;;;;;;12.90;6.60;;;;;;;12.88;59.95;100555.02;94032;1195;87832;-69
2021/10/06 01:01:06;;;;;;;12.70;6.90;;;;;;;12.87;60.02;100551.64;94005;1195;94070;-65
2021/10/06 01:03:13;;;;;;;16.40;8.50;;;;;;;12.87;59.97;100553.96;93985;1195;79679;-64
2021/10/06 01:05:20;;;;;;;14.80;6.80;;;;;;;12.89;60.01;100561.73;94040;1195;81671;-65
2021/10/06 01:07:25;;;;;;;15.00;6.50;;;;;;;12.92;59.99;100565.84;93999;1195;99900;-63
2021/10/06 01:09:31;;;;;;;14.80;6.90;;;;;;;12.93;59.97;100562.55;94041;1195;85866;-64
2021/10/06 01:11:37;;;;;;;15.20;8.10;;;;;;;12.95;60.01;100559.77;93879;1195;95773;-64
2021/10/06 01:13:41;;;;;;;11.20;7.70;;;;;;;12.97;59.97;100555.92;94029;1195;79796;-65
2021/10/06 01:15:46;;;;;;;19.80;7.70;;;;;;;12.98;59.87;100556.19;94046;1195;80431;-64
2021/10/06 01:17:51;;;;;;;17.00;7.70;;;;;;;12.99;59.87;100545.90;94029;1196;97996;-65
2021/10/06 01:19:55;;;;;;;8.70;6.20;;;;;;;13.00;59.95;100546.02;94108;1196;88015;-62
2021/10/06 01:22:03;;;;;;;16.20;7.30;;;;;;;12.99;60.03;100538.80;94022;1196;94035;-65
2021/10/06 01:24:07;;;;;;;10.80;6.30;;;;;;;13.01;59.95;100536.31;94052;1195;78844;-64
2021/10/06 01:26:18;;;;;;;11.50;6.10;;;;;;;13.01;59.98;100541.65;94021;1196;80189;-65
2021/10/06 01:28:22;;;;;;;11.80;6.30;;;;;;;13.02;59.96;100537.52;94002;1195;99772;-64
2021/10/06 01:30:27;;;;;;;15.60;7.00;;;;;;;13.03;59.96;100538.48;93944;1196;88191;-65
2021/10/06 01:32:38;;;;;;;13.30;7.50;;;;;;;13.04;60.00;100534.41;94055;1196;93141;-62
2021/10/06 01:34:43;;;;;;;8.90;6.50;;;;;;;13.05;60.00;100540.95;93929;1196;79089;-64
2021/10/06 01:36:50;;;;;;;14.10;7.10;;;;;;;13.05;59.90;100541.66;94024;1195;81689;-70
2021/10/06 01:38:57;;;;;;;16.10;6.50;;;;;;;13.06;59.94;100541.41;94015;1195;100643;-69
2021/10/06 01:41:02;;;;;;;16.40;7.60;;;;;;;13.06;59.96;100543.04;94027;1195;87063;-63
2021/10/06 01:43:06;;;;;;;10.50;6.40;;;;;;;13.07;59.93;100549.58;94017;1196;94633;-64
2021/10/06 01:45:21;;;;;;;13.70;6.50;;;;;;;13.07;59.93;100553.21;94026;1196;77308;-70
2021/10/06 01:47:27;;;;;;;11.50;6.10;;;;;;;13.07;59.98;100550.29;94059;1196;82252;-69
2021/10/06 01:49:34;;;;;;;11.60;6.80;;;;;;;13.07;59.96;100547.65;94040;1195;100736;-69
2021/10/06 01:51:39;;;;;;;10.40;6.30;;;;;;;13.07;59.95;100546.12;94010;1195;88510;-69
2021/10/06 01:53:44;;;;;;;11.10;6.40;;;;;;;13.08;59.94;100549.87;94053;1196;94331;-69
2021/10/06 01:55:48;;;;;;;10.60;6.20;;;;;;;13.07;59.93;100550.49;94020;1195;79775;-64
2021/10/06 01:57:52;;;;;;;10.50;7.00;;;;;;;13.07;59.95;100551.23;94080;1195;80813;-65
2021/10/06 01:59:56;;;;;;;10.20;6.20;;;;;;;13.07;59.98;100550.71;93997;1196;99752;-64
2021/10/06 02:02:04;;;;;;;9.60;5.60;;;;;;;13.07;60.04;100553.42;94032;1195;87997;-64
2021/10/06 02:04:08;;;;;;;11.90;6.80;;;;;;;13.07;60.09;100550.36;94002;1195;93483;-64
2021/10/06 02:06:12;;;;;;;12.30;6.10;;;;;;;13.07;60.02;100546.23;93992;1196;78198;-68
2021/10/06 02:08:17;;;;;;;14.30;6.30;;;;;;;13.07;60.07;100553.45;94047;1195;80680;-69
2021/10/06 02:10:22;;;;;;;12.70;6.90;;;;;;;13.06;60.03;100554.77;94026;1195;99979;-70
2021/10/06 02:12:26;;;;;;;13.40;6.20;;;;;;;13.07;60.02;100551.82;94022;1195;87060;-70
2021/10/06 02:14:31;;;;;;;16.70;6.40;;;;;;;13.07;60.03;100554.51;94039;1195;94242;-69
2021/10/06 02:16:38;;;;;;;11.70;6.40;;;;;;;13.07;60.01;100563.58;94048;1196;80035;-69
2021/10/06 02:18:42;;;;;;;13.60;7.10;;;;;;;13.06;60.07;100564.88;94050;1196;80835;-69
2021/10/06 02:20:47;;;;;;;11.40;6.60;;;;;;;13.06;60.06;100563.21;94038;1196;98036;-64
2021/10/06 02:22:52;;;;;;;11.60;6.60;;;;;;;13.07;59.97;100566.30;94050;1196;87615;-64
2021/10/06 02:24:57;;;;;;;11.20;6.20;;;;;;;13.06;60.01;100566.30;93998;1196;94935;-65
2021/10/06 02:27:01;;;;;;;11.80;6.60;;;;;;;13.06;60.02;100568.75;94022;1196;78364;-64
2021/10/06 02:29:06;;;;;;;13.00;6.70;;;;;;;13.06;60.09;100559.89;94004;1195;81830;-64
2021/10/06 02:31:10;;;;;;;11.10;6.50;;;;;;;13.07;60.02;100559.05;94010;1195;100138;-69
2021/10/06 02:33:17;;;;;;;9.80;5.60;;;;;;;13.07;60.03;100557.71;94043;1195;86061;-69
2021/10/06 02:35:22;;;;;;;11.60;7.50;;;;;;;13.06;59.99;100556.56;94000;1196;94787;-63
2021/10/06 02:37:26;;;;;;;12.50;6.70;;;;;;;13.06;59.99;100555.48;94023;1196;78899;-63
2021/10/06 02:39:30;;;;;;;12.80;6.20;;;;;;;13.06;59.99;100553.85;94023;1196;82357;-64
2021/10/06 02:41:37;;;;;;;16.40;6.50;;;;;;;13.05;60.06;100557.39;94011;1195;99053;-62
2021/10/06 02:43:41;;;;;;;11.60;6.40;;;;;;;13.05;60.06;100558.77;94010;1195;87534;-64
2021/10/06 02:45:49;;;;;;;12.70;6.40;;;;;;;13.03;60.04;100569.73;93992;1196;95245;-65
2021/10/06 02:47:53;;;;;;;11.90;6.40;;;;;;;13.02;60.07;100566.69;94028;1195;79443;-63
2021/10/06 02:49:57;;;;;;;12.10;6.60;;;;;;;13.00;60.04;100572.48;94024;1195;81043;-71
2021/10/06 02:52:01;;;;;;;9.80;6.50;;;;;;;12.99;60.06;100571.55;94030;1196;98634;-70
2021/10/06 02:54:06;;;;;;;13.80;6.70;;;;;;;12.98;60.04;100569.55;93948;1196;86446;-70
2021/10/06 02:56:10;;;;;;;11.80;6.70;;;;;;;12.97;60.07;100570.91;93986;1195;93667;-64
2021/10/06 02:58:14;;;;;;;9.80;6.20;;;;;;;12.95;60.17;100579.30;94003;1196;79899;-63
2021/10/06 03:00:18;;;;;;;11.80;6.80;;;;;;;12.95;60.19;100579.74;94007;1196;81045;-71
2021/10/06 03:02:22;;;;;;;11.80;6.10;;;;;;;12.94;60.20;100581.86;94007;1196;98876;-70
2021/10/06 03:04:30;;;;;;;12.30;7.20;;;;;;;12.92;60.15;100582.31;94017;1196;87728;-70
2021/10/06 03:06:37;;;;;;;11.30;6.40;;;;;;;12.90;60.29;100585.18;93962;1195;93884;-64
2021/10/06 03:08:42;;;;;;;11.30;6.50;;;;;;;12.90;60.23;100581.64;94002;1195;78000;-65
2021/10/06 03:10:49;;;;;;;9.60;5.90;;;;;;;12.89;60.25;100586.47;93987;1195;82933;-64
2021/10/06 03:12:53;;;;;;;14.50;6.60;;;;;;;12.89;60.31;100592.98;94030;1196;99336;-64
2021/10/06 03:14:58;;;;;;;12.90;7.50;;;;;;;12.88;60.38;100584.95;94014;1196;87932;-70
2021/10/06 03:17:02;;;;;;;15.10;6.40;;;;;;;12.88;60.32;100580.79;93941;1195;92911;-70
2021/10/06 03:19:06;;;;;;;12.50;7.40;;;;;;;12.88;60.25;100574.83;94014;1196;78173;-70
2021/10/06 03:21:13;;;;;;;10.10;6.20;;;;;;;12.89;60.26;100571.98;94009;1196;80330;-69
2021/10/06 03:23:18;;;;;;;12.90;6.40;;;;;;;12.89;60.29;100570.91;94015;1196;100095;-70
2021/10/06 03:25:22;;;;;;;10.80;7.20;;;;;;;12.90;60.29;100579.48;93993;1196;86585;-64
2021/10/06 03:27:26;;;;;;;13.30;6.90;;;;;;;12.90;60.25;100577.84;94023;1196;92194;-64
2021/10/06 03:29:30;;;;;;;10.60;6.60;;;;;;;12.91;60.23;100583.11;93991;1195;79692;-64
2021/10/06 03:31:35;;;;;;;12.70;7.50;;;;;;;12.91;60.30;100578.56;94026;1196;81038;-70
2021/10/06 03:33:39;;;;;;;11.20;6.60;;;;;;;12.91;60.22;100578.05;93998;1195;100093;-70
2021/10/06 03:35:43;;;;;;;12.80;7.30;;;;;;;12.91;60.32;100577.77;94013;1196;86949;-64
2021/10/06 03:37:49;;;;;;;11.40;7.30;;;;;;;12.88;60.74;100574.49;93997;1195;93533;-65
2021/10/06 03:39:53;;;;;;;10.60;6.80;;;;;;;12.84;60.98;100578.27;94058;1196;78044;-70
2021/10/06 03:41:57;;;;;;;13.30;6.90;;;;;;;12.80;61.22;100574.83;94001;1196;82155;-70
2021/10/06 03:44:01;;;;;;;15.20;7.10;;;;;;;12.77;61.26;100585.31;94008;1196;99855;-69
2021/10/06 03:46:05;;;;;;;12.60;7.20;;;;;;;12.74;61.46;100589.54;93957;1195;87682;-70
2021/10/06 03:48:10;;;;;;;10.00;6.80;;;;;;;12.70;61.61;100580.89;94015;1196;94102;-69
2021/10/06 03:50:17;;;;;;;11.20;6.80;;;;;;;12.67;61.65;100586.83;93978;1196;78451;-69
2021/10/06 03:52:22;;;;;;;10.30;6.70;;;;;;;12.65;61.68;100587.31;94051;1196;81101;-69
2021/10/06 03:54:29;;;;;;;9.90;6.30;;;;;;;12.64;61.66;100588.52;94063;1196;100083;-69
2021/10/06 03:56:36;;;;;;;10.60;6.80;;;;;;;12.62;61.88;100597.77;93949;1195;87830;-64
2021/10/06 03:58:43;;;;;;;15.30;6.80;;;;;;;12.61;62.04;100599.92;93988;1196;94142;-64
2021/10/06 04:00:48;;;;;;;11.70;7.10;;;;;;;12.58;62.38;100605.29;93982;1196;80717;-64
2021/10/06 04:02:52;;;;;;;13.00;7.40;;;;;;;12.56;62.43;100600.60;94032;1196;81833;-64
2021/10/06 04:04:56;;;;;;;11.50;7.00;;;;;;;12.55;62.59;100601.60;93977;1196;99529;-70
2021/10/06 04:07:00;;;;;;;12.30;6.60;;;;;;;12.55;62.84;100607.30;94018;1195;87185;-68
2021/10/06 04:09:07;;;;;;;12.90;6.70;;;;;;;12.55;62.64;100597.63;94004;1195;92785;-70
2021/10/06 04:11:11;;;;;;;12.30;7.40;;;;;;;12.56;62.60;100589.50;93991;1196;78599;-64
2021/10/06 04:13:15;;;;;;;14.70;7.20;;;;;;;12.57;62.46;100594.89;94020;1196;82883;-64
2021/10/06 04:15:20;;;;;;;10.50;6.50;;;;;;;12.58;62.41;100587.14;93993;1196;98234;-69
2021/10/06 04:17:24;;;;;;;9.60;6.30;;;;;;;12.58;62.41;100593.33;94019;1195;87089;-69
2021/10/06 04:19:28;;;;;;;13.50;7.30;;;;;;;12.59;62.12;100593.70;94007;1195;92857;-70
2021/10/06 04:21:32;;;;;;;11.70;6.30;;;;;;;12.61;62.11;100595.30;94027;1195;77670;-70
2021/10/06 04:23:36;;;;;;;15.20;6.10;;;;;;;12.61;62.13;100605.73;94019;1196;81858;-69
2021/10/06 04:25:41;;;;;;;11.00;6.50;;;;;;;12.61;62.14;100615.60;94015;1195;100162;-64
2021/10/06 04:27:48;;;;;;;12.60;7.00;;;;;;;12.61;62.07;100609.94;94037;1196;87933;-63
2021/10/06 04:29:52;;;;;;;11.10;7.20;;;;;;;12.60;62.09;100607.30;93995;1196;93613;-65
2021/10/06 04:31:56;;;;;;;10.00;6.50;;;;;;;12.60;62.13;100613.64;94021;1196;78397;-63
2021/10/06 04:34:01;;;;;;;13.10;7.40;;;;;;;12.60;62.13;100616.89;94046;1195;82148;-65
2021/10/06 04:36:08;;;;;;;11.10;6.50;;;;;;;12.61;62.01;100611.80;94016;1196;99935;-65
2021/10/06 04:38:15;;;;;;;9.70;6.60;;;;;;;12.62;62.03;100607.73;93997;1196;88625;-64
2021/10/06 04:40:20;;;;;;;11.70;6.30;;;;;;;12.64;61.95;100609.90;94051;1196;93159;-65
2021/10/06 04:42:27;;;;;;;10.50;6.30;;;;;;;12.64;61.95;100611.16;94002;1196;78368;-64
2021/10/06 04:44:34;;;;;;;11.80;6.60;;;;;;;12.64;61.97;100610.52;94064;1196;80968;-64
2021/10/06 04:46:42;;;;;;;13.00;6.60;;;;;;;12.65;62.03;100619.46;94028;1196;99508;-70
2021/10/06 04:48:47;;;;;;;13.60;6.40;;;;;;;12.65;62.02;100627.23;94036;1196;87189;-70
2021/10/06 04:50:51;;;;;;;15.40;6.50;;;;;;;12.65;61.99;100629.90;93986;1196;94245;-65
2021/10/06 04:52:56;;;;;;;10.40;6.90;;;;;;;12.66;62.02;100634.48;93944;1195;78207;-64
2021/10/06 04:55:00;;;;;;;11.10;6.30;;;;;;;12.66;61.97;100631.23;94032;1196;82146;-66
2021/10/06 04:57:05;;;;;;;9.70;6.00;;;;;;;12.66;62.00;100635.57;94041;1196;97442;-64
2021/10/06 04:59:09;;;;;;;9.00;7.00;;;;;;;12.67;62.07;100640.40;94015;1195;87897;-66
2021/10/06 05:01:13;;;;;;;8.40;6.60;;;;;;;12.66;62.03;100641.73;94014;1196;93830;-73
2021/10/06 05:03:17;;;;;;;11.60;7.00;;;;;;;12.66;62.09;100643.15;94017;1195;80059;-68
2021/10/06 05:05:24;;;;;;;10.80;6.40;;;;;;;12.66;62.05;100649.75;93999;1196;81957;-65
2021/10/06 05:07:29;;;;;;;13.20;6.90;;;;;;;12.64;62.11;100650.47;94007;1196;99038;-66
2021/10/06 05:09:33;;;;;;;10.60;6.70;;;;;;;12.64;62.06;100649.60;94049;1195;88404;-67
2021/10/06 05:11:40;;;;;;;8.50;6.20;;;;;;;12.63;61.99;100650.60;94035;1195;93460;-68
2021/10/06 05:13:44;;;;;;;10.10;6.60;;;;;;;12.62;62.13;100653.56;94018;1196;78649;-67
2021/10/06 05:15:48;;;;;;;12.70;6.90;;;;;;;12.61;62.15;100658.09;94015;1195;81836;-71
2021/10/06 05:17:53;;;;;;;12.30;6.70;;;;;;;12.60;62.27;100669.51;94020;1196;99479;-71
2021/10/06 05:19:57;;;;;;;12.80;6.80;;;;;;;12.58;62.67;100678.54;94045;1196;87712;-70
2021/10/06 05:22:02;;;;;;;10.00;6.90;;;;;;;12.55;63.22;100687.30;94051;1196;93350;-71
2021/10/06 05:24:09;;;;;;;12.00;6.50;;;;;;;12.52;63.26;100685.35;94039;1196;78837;-71
2021/10/06 05:26:14;;;;;;;11.90;6.90;;;;;;;12.50;63.47;100688.98;94035;1196;81238;-71
2021/10/06 05:28:18;;;;;;;8.60;6.70;;;;;;;12.51;63.70;100696.48;94005;1196;99857;-71
2021/10/06 05:30:22;;;;;;;16.30;10.80;;;;;;;12.49;63.84;100701.05;94001;1196;86284;-71
2021/10/06 05:32:27;;;;;;;33.00;19.00;;;;;;;12.48;64.04;100704.59;94052;1195;93704;-71
2021/10/06 05:34:31;;;;;;;33.60;24.10;;;;;;;12.46;64.22;100702.11;94100;1196;79078;-72
2021/10/06 05:36:38;;;;;;;12.00;9.00;;;;;;;12.44;64.39;100706.66;93720;1196;81501;-68
2021/10/06 05:38:46;;;;;;;13.80;7.30;;;;;;;12.42;64.64;100706.17;94038;1196;99316;-67
2021/10/06 05:40:50;;;;;;;9.90;6.60;;;;;;;12.39;64.87;100707.71;94064;1196;88168;-69
2021/10/06 05:42:54;;;;;;;10.70;7.60;;;;;;;12.38;65.00;100713.75;93997;1196;94198;-67
2021/10/06 05:44:59;;;;;;;9.40;7.40;;;;;;;12.38;65.18;100710.46;94064;1196;78796;-72
2021/10/06 05:47:03;;;;;;;13.60;7.70;;;;;;;12.38;65.24;100709.41;94085;1196;80594;-72
2021/10/06 05:49:07;;;;;;;9.30;7.10;;;;;;;12.36;65.22;100717.18;94033;1195;97825;-68
2021/10/06 05:51:12;;;;;;;10.00;8.00;;;;;;;12.32;65.53;100721.36;93973;1195;87933;-71
2021/10/06 05:53:17;;;;;;;13.50;7.90;;;;;;;12.31;65.45;100714.18;94042;1195;94144;-70
2021/10/06 05:55:21;;;;;;;11.70;7.80;;;;;;;12.29;65.40;100722.02;94043;1196;79736;-72
2021/10/06 05:57:26;;;;;;;9.90;6.70;;;;;;;12.29;65.39;100726.29;94012;1195;80725;-70
2021/10/06 05:59:31;;;;;;;10.10;7.00;;;;;;;12.30;65.51;100727.08;94005;1196;99107;-71
2021/10/06 06:01:35;;;;;;;11.40;7.40;;;;;;;12.32;65.48;100731.90;93999;1196;87996;-71
2021/10/06 06:03:39;;;;;;;10.30;6.60;;;;;;;12.33;65.56;100730.91;94093;1196;94156;-74
2021/10/06 06:05:44;;;;;;;14.00;7.80;;;;;;;12.34;65.61;100734.74;94008;1195;78333;-71
2021/10/06 06:07:48;;;;;;;9.60;6.60;;;;;;;12.32;65.46;100737.45;94017;1196;82053;-72
2021/10/06 06:09:52;;;;;;;11.30;7.00;;;;;;;12.35;65.41;100739.77;94021;1196;97859;-67
2021/10/06 06:11:56;;;;;;;13.40;7.60;;;;;;;12.35;65.43;100743.59;94027;1196;87637;-68
2021/10/06 06:14:04;;;;;;;10.70;6.70;;;;;;;12.34;65.45;100745.30;94042;1196;94585;-67
2021/10/06 06:16:08;;;;;;;11.80;7.40;;;;;;;12.35;65.47;100743.94;93997;1196;79137;-69
2021/10/06 06:18:12;;;;;;;16.10;7.90;;;;;;;12.35;65.45;100748.23;94029;1196;82217;-70
2021/10/06 06:20:23;;;;;;;10.20;7.30;;;;;;;12.37;65.29;100747.71;93994;1196;98193;-70
2021/10/06 06:22:30;;;;;;;9.60;6.90;;;;;;;12.39;65.32;100748.98;94053;1195;87398;-68
2021/10/06 06:24:34;;;;;;;14.70;7.60;;;;;;;12.40;65.43;100745.62;94020;1196;94512;-69
2021/10/06 06:26:38;;;;;;;10.80;7.70;;;;;;;12.43;65.32;100751.07;94020;1196;79270;-65
2021/10/06 06:28:42;;;;;;;11.50;7.60;;;;;;;12.48;65.32;100755.41;94038;1196;81490;-65
2021/10/06 06:30:47;;;;;;;9.80;7.10;;;;;;;12.49;65.28;100753.05;94015;1195;100304;-70
2021/10/06 06:32:52;;;;;;;11.10;7.20;;;;;;;12.50;65.22;100755.67;94010;1196;87253;-70
2021/10/06 06:34:56;;;;;;;12.40;7.20;;;;;;;12.53;65.18;100759.11;94077;1196;94595;-65
2021/10/06 06:37:04;;;;;;;10.00;6.80;;;;;;;12.55;65.20;100761.52;94051;1195;79378;-64
2021/10/06 06:39:11;;;;;;;8.10;6.60;;;;;;;12.58;65.15;100762.05;94077;1195;82133;-65
2021/10/06 06:41:16;;;;;;;11.40;6.80;;;;;;;12.61;65.12;100761.58;94028;1196;99353;-70
2021/10/06 06:43:23;;;;;;;12.00;7.80;;;;;;;12.66;65.15;100766.22;94043;1196;87381;-69
2021/10/06 06:45:28;;;;;;;14.30;6.90;;;;;;;12.69;65.01;100767.29;93986;1196;95414;-65
2021/10/06 06:47:36;;;;;;;12.30;6.70;;;;;;;12.72;65.01;100770.52;93999;1196;81483;-64
2021/10/06 06:49:40;;;;;;;11.10;7.10;;;;;;;12.76;65.04;100770.98;93913;1195;80640;-65
2021/10/06 06:51:47;;;;;;;13.20;7.10;;;;;;;12.80;64.96;100770.07;93991;1196;98617;-70
2021/10/06 06:53:52;;;;;;;8.40;6.40;;;;;;;12.87;64.86;100771.67;94083;1196;88490;-68
2021/10/06 06:55:58;;;;;;;9.70;6.70;;;;;;;12.96;64.74;100774.67;94023;1195;94813;-65
2021/10/06 06:58:03;;;;;;;11.00;6.90;;;;;;;13.02;64.57;100780.89;94072;1196;78548;-65
2021/10/06 07:00:13;;;;;;;11.20;7.40;;;;;;;13.05;64.54;100781.98;94093;1196;81083;-70
2021/10/06 07:02:17;;;;;;;9.60;7.00;;;;;;;13.16;64.53;100781.91;94114;1195;100185;-70
2021/10/06 07:04:21;;;;;;;10.60;7.60;;;;;;;13.23;64.40;100784.52;94059;1195;88068;-71
2021/10/06 07:06:27;;;;;;;12.10;7.40;;;;;;;13.28;64.51;100788.11;94001;1196;94576;-70
2021/10/06 07:08:31;;;;;;;12.50;7.50;;;;;;;13.26;64.61;100789.80;94035;1196;78723;-68
2021/10/06 07:10:37;;;;;;;12.30;7.20;;;;;;;13.22;64.58;100794.28;94051;1195;80377;-67
2021/10/06 07:12:41;;;;;;;73.40;49.00;;;;;;;13.21;64.76;100793.43;94067;1196;98716;-67
2021/10/06 07:14:49;;;;;;;28.70;20.90;;;;;;;13.23;64.76;100794.34;94039;1195;88079;-67
2021/10/06 07:16:54;;;;;;;12.10;9.30;;;;;;;13.33;64.77;100798.67;94065;1196;94191;-67
2021/10/06 07:19:01;;;;;;;12.60;7.90;;;;;;;13.44;64.76;100799.16;93897;1195;81102;-66
2021/10/06 07:21:05;;;;;;;11.40;7.00;;;;;;;13.61;64.63;100801.12;94039;1195;81860;-68
2021/10/06 07:23:12;;;;;;;13.70;6.80;;;;;;;13.86;64.32;100799.01;94070;1195;99226;-67
2021/10/06 07:25:17;;;;;;;11.90;7.30;;;;;;;14.07;63.91;100801.58;94068;1196;86940;-71
2021/10/06 07:27:22;;;;;;;10.50;7.40;;;;;;;14.28;63.84;100800.73;94029;1195;94479;-71
2021/10/06 07:29:26;;;;;;;11.70;7.90;;;;;;;14.44;63.49;100800.63;94015;1195;77414;-70
2021/10/06 07:31:31;;;;;;;14.00;8.20;;;;;;;14.44;62.99;100806.56;94032;1195;82052;-70
2021/10/06 07:33:35;;;;;;;10.10;6.10;;;;;;;14.50;63.03;100809.20;94067;1196;99149;-70
2021/10/06 07:35:42;;;;;;;13.90;7.50;;;;;;;14.46;62.74;100812.80;94056;1195;86905;-66
2021/10/06 07:37:46;;;;;;;10.60;7.00;;;;;;;14.38;62.54;100810.23;94052;1196;93474;-65
2021/10/06 07:39:52;;;;;;;8.60;6.40;;;;;;;14.28;62.35;100814.29;94046;1195;79135;-66
2021/10/06 07:41:56;;;;;;;12.80;6.80;;;;;;;14.23;62.24;100811.92;94066;1196;80241;-66
2021/10/06 07:44:00;;;;;;;11.00;6.70;;;;;;;14.09;62.12;100815.25;94088;1196;99496;-68
2021/10/06 07:46:05;;;;;;;11.00;7.40;;;;;;;14.08;62.06;100814.27;94048;1195;87746;-73
2021/10/06 07:48:09;;;;;;;13.00;6.20;;;;;;;14.06;61.94;100816.70;94048;1196;93206;-67
2021/10/06 07:50:13;;;;;;;11.40;7.10;;;;;;;14.02;61.85;100821.37;94048;1196;77934;-67
2021/10/06 07:52:17;;;;;;;10.30;7.00;;;;;;;14.06;61.88;100818.37;94027;1195;80129;-68
2021/10/06 07:54:21;;;;;;;9.10;6.20;;;;;;;14.24;62.02;100819.92;94111;1195;98837;-69
2021/10/06 07:56:28;;;;;;;10.80;7.20;;;;;;;14.44;61.92;100818.89;94103;1195;86947;-73
2021/10/06 07:58:33;;;;;;;10.60;6.50;;;;;;;14.64;61.55;100813.40;94074;1196;93566;-73
2021/10/06 08:00:37;;;;;;;11.50;6.80;;;;;;;15.15;61.31;100818.48;94050;1187;80185;-73
2021/10/06 08:02:44;;;;;;;11.40;7.00;;;;;;;15.39;60.70;100821.08;94080;1195;82575;-72
2021/10/06 08:04:48;;;;;;;10.20;6.60;;;;;;;16.21;60.71;100823.73;94061;1196;98888;-66
2021/10/06 08:06:53;;;;;;;14.00;7.60;;;;;;;16.78;59.28;100822.14;94024;1196;87245;-66
2021/10/06 08:08:57;;;;;;;10.30;6.10;;;;;;;16.51;58.23;100832.23;94059;1196;92035;-66
2021/10/06 08:11:05;;;;;;;12.50;7.20;;;;;;;16.24;58.61;100834.09;94074;1195;79538;-67
2021/10/06 08:13:12;;;;;;;13.70;7.80;;;;;;;16.02;58.45;100843.05;94040;1196;81163;-70
2021/10/06 08:15:16;;;;;;;10.40;6.60;;;;;;;15.90;58.65;100838.26;94129;1196;99332;-70
2021/10/06 08:17:20;;;;;;;8.10;6.90;;;;;;;15.83;58.44;100838.77;94051;1195;87104;-69
2021/10/06 08:19:28;;;;;;;9.70;7.10;;;;;;;15.63;58.33;100841.20;94068;1196;94493;-70
2021/10/06 08:21:32;;;;;;;9.40;6.50;;;;;;;15.50;58.56;100840.38;94070;1195;79019;-71
2021/10/06 08:23:37;;;;;;;12.50;7.30;;;;;;;15.41;58.67;100836.49;94109;1195;79879;-66
2021/10/06 08:25:41;;;;;;;9.30;6.40;;;;;;;15.34;58.65;100840.18;94108;1196;97092;-69
2021/10/06 08:27:45;;;;;;;8.80;6.70;;;;;;;15.29;58.71;100839.38;94095;1196;87124;-67
2021/10/06 08:29:52;;;;;;;11.70;6.90;;;;;;;15.22;58.74;100837.58;94001;1195;93653;-68
2021/10/06 08:31:57;;;;;;;10.00;6.70;;;;;;;15.07;57.97;100839.20;94078;1196;79271;-69
2021/10/06 08:34:01;;;;;;;11.40;6.50;;;;;;;14.95;58.57;100834.42;94076;1195;80996;-67
2021/10/06 08:36:05;;;;;;;9.30;6.40;;;;;;;14.94;58.62;100836.17;94092;1195;100165;-70
2021/10/06 08:38:11;;;;;;;12.20;6.60;;;;;;;14.86;58.68;100839.71;94088;1195;86993;-67
2021/10/06 08:40:15;;;;;;;12.90;6.90;;;;;;;14.81;58.85;100836.61;94017;1196;93454;-68
2021/10/06 08:42:21;;;;;;;8.80;7.00;;;;;;;14.85;58.81;100843.83;94043;1190;80263;-67
2021/10/06 08:44:32;;;;;;;10.30;6.00;;;;;;;14.87;58.79;100844.24;94169;1196;80443;-76
2021/10/06 08:46:39;;;;;;;11.50;7.20;;;;;;;14.91;58.81;100843.23;94064;1195;98191;-74
2021/10/06 08:48:46;;;;;;;18.00;7.80;;;;;;;14.97;58.86;100847.82;94113;1196;87996;-70
2021/10/06 08:50:51;;;;;;;10.50;7.60;;;;;;;15.05;58.72;100843.93;94086;1196;92728;-66
2021/10/06 08:52:55;;;;;;;10.40;7.00;;;;;;;15.11;58.58;100846.83;94078;1196;78209;-65
2021/10/06 08:55:01;;;;;;;10.30;6.00;;;;;;;15.22;58.72;100848.73;94110;1195;80255;-63
2021/10/06 08:57:05;;;;;;;8.30;5.90;;;;;;;15.37;58.73;100848.60;94046;1196;100181;-67
2021/10/06 08:59:12;;;;;;;8.80;6.90;;;;;;;15.42;58.43;100852.16;94100;1196;87596;-68
2021/10/06 09:01:24;;;;;;;13.00;6.90;;;;;;;15.60;58.49;100855.27;94135;1195;93512;-71
2021/10/06 09:03:34;;;;;;;10.50;6.00;;;;;;;15.72;57.68;100857.83;94120;1195;78024;-70
2021/10/06 09:05:38;;;;;;;10.20;6.20;;;;;;;15.74;57.42;100858.91;94100;1195;80099;-69
2021/10/06 09:07:57;;;;;;;11.20;6.70;;;;;;;15.91;57.42;100855.66;94063;1195;100115;-69
2021/10/06 09:10:15;;;;;;;8.50;6.00;;;;;;;16.06;56.79;100854.02;94093;1195;86533;-70
2021/10/06 09:12:23;;;;;;;9.80;6.20;;;;;;;16.60;57.28;100849.97;94045;1195;93178;-69
2021/10/06 09:14:30;;;;;;;8.90;6.00;;;;;;;16.95;56.37;100846.08;94112;1195;78677;-68
2021/10/06 09:16:37;;;;;;;9.00;5.90;;;;;;;17.06;55.44;100848.45;94073;1196;81049;-69
2021/10/06 09:18:41;;;;;;;10.70;5.80;;;;;;;17.06;55.24;100848.79;94065;1195;100404;-70
2021/10/06 09:20:46;;;;;;;7.20;5.90;;;;;;;17.72;55.61;100849.44;94092;1195;86772;-72
2021/10/06 09:23:05;;;;;;;12.10;6.70;;;;;;;18.46;54.55;100847.86;94096;1195;94086;-71
2021/10/06 09:25:13;;;;;;;10.50;5.90;;;;;;;19.23;53.70;100845.27;94070;1196;77818;-71
2021/10/06 09:27:20;;;;;;;10.60;5.80;;;;;;;19.73;52.06;100842.55;94057;1196;81696;-70
2021/10/06 09:29:24;;;;;;;11.40;6.40;;;;;;;19.69;52.05;100847.05;94147;1195;99110;-66
2021/10/06 09:31:29;;;;;;;12.00;6.20;;;;;;;19.25;51.38;100842.41;94024;1195;88448;-63
2021/10/06 09:33:43;;;;;;;8.60;6.00;;;;;;;18.95;50.67;100843.84;94050;1196;94938;-64
2021/10/06 09:36:07;;;;;;;9.00;5.40;;;;;;;18.53;51.05;100853.33;94108;1195;78997;-70